sensor_id;sensor_type;location;lat;lon;timestamp;pressure;altitude;pressure_sealevel;temperature;humidity
17781;BME280;8498;52.516;13.790;2024-01-30T00:03:56;102473.94;;;1.86;91.71
17781;BME280;8498;52.516;13.790;2024-01-30T00:09:19;102470.44;;;1.85;92.57
17781;BME280;8498;52.516;13.790;2024-01-30T00:14:42;102467.78;;;1.88;92.09
17781;BME280;8498;52.516;13.790;2024-01-30T00:20:05;102468.72;;;1.75;92.20
17781;BME280;8498;52.516;13.790;2024-01-30T00:25:28;102474.81;;;1.80;92.53
17781;BME280;8498;52.516;13.790;2024-01-30T00:30:50;102471.34;;;1.70;92.20
17781;BME280;8498;52.516;13.790;2024-01-30T00:36:13;102471.34;;;1.69;92.41
17781;BME280;8498;52.516;13.790;2024-01-30T00:41:35;102458.25;;;1.69;92.72
17781;BME280;8498;52.516;13.790;2024-01-30T00:46:57;102463.50;;;1.63;92.76
17781;BME280;8498;52.516;13.790;2024-01-30T00:52:19;102465.25;;;1.61;92.75
17781;BME280;8498;52.516;13.790;2024-01-30T00:57:41;102472.25;;;1.57;93.30
17781;BME280;8498;52.516;13.790;2024-01-30T01:03:07;102468.75;;;1.57;93.35
17781;BME280;8498;52.516;13.790;2024-01-30T01:08:29;102464.41;;;1.56;93.45
17781;BME280;8498;52.516;13.790;2024-01-30T01:13:51;102466.16;;;1.54;93.39
17781;BME280;8498;52.516;13.790;2024-01-30T01:19:13;102464.41;;;1.46;93.97
17781;BME280;8498;52.516;13.790;2024-01-30T01:24:35;102463.53;;;1.46;93.46
17781;BME280;8498;52.516;13.790;2024-01-30T01:29:58;102460.94;;;1.44;93.59
17781;BME280;8498;52.516;13.790;2024-01-30T01:35:23;102456.56;;;1.42;93.72
17781;BME280;8498;52.516;13.790;2024-01-30T01:40:49;102445.22;;;1.41;93.49
17781;BME280;8498;52.516;13.790;2024-01-30T01:46:11;102452.22;;;1.42;93.63
17781;BME280;8498;52.516;13.790;2024-01-30T01:51:35;102438.28;;;1.34;93.35
17781;BME280;8498;52.516;13.790;2024-01-30T01:56:57;102453.09;;;1.32;93.84
17781;BME280;8498;52.516;13.790;2024-01-30T02:02:20;102440.00;;;1.35;94.07
17781;BME280;8498;52.516;13.790;2024-01-30T02:07:43;102447.00;;;1.33;94.01
17781;BME280;8498;52.516;13.790;2024-01-30T02:13:06;102445.25;;;1.26;94.17
17781;BME280;8498;52.516;13.790;2024-01-30T02:18:28;102450.50;;;1.23;94.50
17781;BME280;8498;52.516;13.790;2024-01-30T02:23:51;102454.00;;;1.13;94.42
17781;BME280;8498;52.516;13.790;2024-01-30T02:29:14;102458.38;;;1.13;94.70
17781;BME280;8498;52.516;13.790;2024-01-30T02:34:36;102448.75;;;1.16;94.90
17781;BME280;8498;52.516;13.790;2024-01-30T02:39:58;102447.91;;;1.13;95.21
17781;BME280;8498;52.516;13.790;2024-01-30T02:45:20;102448.75;;;1.16;95.39
17781;BME280;8498;52.516;13.790;2024-01-30T02:50:43;102442.66;;;1.08;95.21
17781;BME280;8498;52.516;13.790;2024-01-30T02:56:05;102438.28;;;1.04;95.53
17781;BME280;8498;52.516;13.790;2024-01-30T03:01:27;102444.41;;;1.07;95.79
17781;BME280;8498;52.516;13.790;2024-01-30T03:06:49;102442.66;;;1.11;95.13
17781;BME280;8498;52.516;13.790;2024-01-30T03:12:12;102440.03;;;1.16;95.38
17781;BME280;8498;52.516;13.790;2024-01-30T03:17:34;102426.94;;;1.17;95.43
17781;BME280;8498;52.516;13.790;2024-01-30T03:22:59;102414.72;;;1.18;95.55
17781;BME280;8498;52.516;13.790;2024-01-30T03:28:21;102419.09;;;1.17;95.09
17781;BME280;8498;52.516;13.790;2024-01-30T03:33:44;102419.97;;;1.12;95.73
17781;BME280;8498;52.516;13.790;2024-01-30T03:39:06;102419.97;;;1.10;95.91
17781;BME280;8498;52.516;13.790;2024-01-30T03:44:28;102420.84;;;1.07;96.14
17781;BME280;8498;52.516;13.790;2024-01-30T03:49:50;102418.22;;;1.10;95.99
17781;BME280;8498;52.516;13.790;2024-01-30T03:55:12;102414.75;;;1.02;95.88
17781;BME280;8498;52.516;13.790;2024-01-30T04:00:34;102421.75;;;1.00;96.39
17781;BME280;8498;52.516;13.790;2024-01-30T04:05:57;102414.75;;;1.01;95.98
17781;BME280;8498;52.516;13.790;2024-01-30T04:11:19;102414.75;;;0.95;96.84
17781;BME280;8498;52.516;13.790;2024-01-30T04:16:42;102408.66;;;0.90;97.16
17781;BME280;8498;52.516;13.790;2024-01-30T04:22:04;102410.41;;;0.88;96.90
17781;BME280;8498;52.516;13.790;2024-01-30T04:27:26;102428.72;;;0.86;96.91
17781;BME280;8498;52.516;13.790;2024-01-30T04:32:48;102430.47;;;0.83;97.60
17781;BME280;8498;52.516;13.790;2024-01-30T04:38:10;102426.97;;;0.84;98.00
17781;BME280;8498;52.516;13.790;2024-01-30T04:43:33;102420.88;;;0.88;98.30
17781;BME280;8498;52.516;13.790;2024-01-30T04:48:54;102416.50;;;0.94;98.15
17781;BME280;8498;52.516;13.790;2024-01-30T04:54:17;102415.63;;;0.95;97.72
17781;BME280;8498;52.516;13.790;2024-01-30T04:59:39;102412.13;;;1.01;98.16
17781;BME280;8498;52.516;13.790;2024-01-30T05:05:01;102413.00;;;0.97;98.57
17781;BME280;8498;52.516;13.790;2024-01-30T05:10:24;102408.66;;;0.96;98.96
17781;BME280;8498;52.516;13.790;2024-01-30T05:15:46;102406.03;;;0.94;99.12
17781;BME280;8498;52.516;13.790;2024-01-30T05:21:08;102406.91;;;0.96;99.38
17781;BME280;8498;52.516;13.790;2024-01-30T05:26:31;102399.91;;;0.98;99.13
17781;BME280;8498;52.516;13.790;2024-01-30T05:31:53;102407.75;;;0.94;99.08
17781;BME280;8498;52.516;13.790;2024-01-30T05:37:15;102406.91;;;0.95;99.48
17781;BME280;8498;52.516;13.790;2024-01-30T05:42:39;102410.38;;;0.97;99.41
17781;BME280;8498;52.516;13.790;2024-01-30T05:48:01;102412.13;;;1.01;99.08
17781;BME280;8498;52.516;13.790;2024-01-30T05:53:41;102406.91;;;0.98;98.78
17781;BME280;8498;52.516;13.790;2024-01-30T05:59:22;102407.75;;;0.94;99.24
17781;BME280;8498;52.516;13.790;2024-01-30T06:04:45;102406.03;;;0.97;99.82
17781;BME280;8498;52.516;13.790;2024-01-30T06:10:08;102410.41;;;1.00;99.72
17781;BME280;8498;52.516;13.790;2024-01-30T06:15:31;102421.75;;;1.03;99.90
17781;BME280;8498;52.516;13.790;2024-01-30T06:20:55;102415.59;;;1.06;100.00
17781;BME280;8498;52.516;13.790;2024-01-30T06:26:17;102406.88;;;1.04;100.00
17781;BME280;8498;52.516;13.790;2024-01-30T06:31:43;102407.78;;;1.01;100.00
17781;BME280;8498;52.516;13.790;2024-01-30T06:37:04;102410.41;;;1.03;99.77
17781;BME280;8498;52.516;13.790;2024-01-30T06:42:27;102408.63;;;1.05;100.00
17781;BME280;8498;52.516;13.790;2024-01-30T06:47:49;102401.63;;;1.16;99.89
17781;BME280;8498;52.516;13.790;2024-01-30T06:53:11;102397.28;;;1.21;99.96
17781;BME280;8498;52.516;13.790;2024-01-30T06:58:33;102401.59;;;1.25;99.52
17781;BME280;8498;52.516;13.790;2024-01-30T07:03:55;102403.34;;;1.32;99.98
17781;BME280;8498;52.516;13.790;2024-01-30T07:09:17;102406.81;;;1.37;100.00
17781;BME280;8498;52.516;13.790;2024-01-30T07:14:40;102402.47;;;1.42;99.76
17781;BME280;8498;52.516;13.790;2024-01-30T07:20:02;102403.28;;;1.49;99.48
17781;BME280;8498;52.516;13.790;2024-01-30T07:25:26;102401.50;;;1.62;99.82
17781;BME280;8498;52.516;13.790;2024-01-30T07:30:51;102394.47;;;1.76;100.00
17781;BME280;8498;52.516;13.790;2024-01-30T07:36:14;102392.63;;;1.93;100.00
17781;BME280;8498;52.516;13.790;2024-01-30T07:41:36;102397.75;;;2.14;100.00
17781;BME280;8498;52.516;13.790;2024-01-30T07:46:58;102395.91;;;2.29;98.93
17781;BME280;8498;52.516;13.790;2024-01-30T07:52:21;102388.81;;;2.43;98.62
17781;BME280;8498;52.516;13.790;2024-01-30T07:57:43;102388.75;;;2.52;98.01
17781;BME280;8498;52.516;13.790;2024-01-30T08:03:05;102379.97;;;2.59;98.33
17781;BME280;8498;52.516;13.790;2024-01-30T08:08:28;102371.97;;;2.73;98.32
17781;BME280;8498;52.516;13.790;2024-01-30T08:13:53;102371.00;;;2.84;97.87
17781;BME280;8498;52.516;13.790;2024-01-30T08:19:15;102370.00;;;2.96;97.99
17781;BME280;8498;52.516;13.790;2024-01-30T08:24:38;102371.63;;;3.11;97.97
17781;BME280;8498;52.516;13.790;2024-01-30T08:30:19;102369.59;;;3.34;97.55
17781;BME280;8498;52.516;13.790;2024-01-30T08:35:44;102374.66;;;3.52;96.50
17781;BME280;8498;52.516;13.790;2024-01-30T08:41:07;102370.81;;;3.78;94.99
17781;BME280;8498;52.516;13.790;2024-01-30T08:46:29;102363.50;;;3.99;94.75
17781;BME280;8498;52.516;13.790;2024-01-30T08:51:52;102372.09;;;4.12;94.09
17781;BME280;8498;52.516;13.790;2024-01-30T08:57:14;102349.81;;;4.36;93.12
17781;BME280;8498;52.516;13.790;2024-01-30T09:02:36;102344.44;;;4.43;91.91
17781;BME280;8498;52.516;13.790;2024-01-30T09:07:59;102344.75;;;4.76;91.02
17781;BME280;8498;52.516;13.790;2024-01-30T09:13:21;102342.66;;;4.95;90.42
17781;BME280;8498;52.516;13.790;2024-01-30T09:18:44;102345.78;;;5.16;88.97
17781;BME280;8498;52.516;13.790;2024-01-30T09:24:06;102349.00;;;5.31;84.53
17781;BME280;8498;52.516;13.790;2024-01-30T09:29:28;102348.25;;;5.67;83.61
17781;BME280;8498;52.516;13.790;2024-01-30T09:34:50;102352.09;;;5.93;81.76
17781;BME280;8498;52.516;13.790;2024-01-30T09:40:12;102355.94;;;6.18;79.84
17781;BME280;8498;52.516;13.790;2024-01-30T09:45:35;102341.16;;;6.46;78.53
17781;BME280;8498;52.516;13.790;2024-01-30T09:50:57;102347.78;;;6.64;73.96
17781;BME280;8498;52.516;13.790;2024-01-30T09:56:19;102347.88;;;6.95;73.31
17781;BME280;8498;52.516;13.790;2024-01-30T10:01:43;102336.88;;;7.10;71.32
17781;BME280;8498;52.516;13.790;2024-01-30T10:07:06;102333.66;;;7.30;70.98
17781;BME280;8498;52.516;13.790;2024-01-30T10:12:29;102325.44;;;7.41;69.20
17781;BME280;8498;52.516;13.790;2024-01-30T10:17:51;102328.28;;;7.64;67.59
17781;BME280;8498;52.516;13.790;2024-01-30T10:23:14;102322.44;;;7.82;65.96
17781;BME280;8498;52.516;13.790;2024-01-30T10:28:36;102315.84;;;7.95;64.67
17781;BME280;8498;52.516;13.790;2024-01-30T10:33:58;102308.25;;;8.13;63.47
17781;BME280;8498;52.516;13.790;2024-01-30T10:39:39;102306.75;;;8.32;62.26
17781;BME280;8498;52.516;13.790;2024-01-30T10:45:08;102302.47;;;8.54;61.18
17781;BME280;8498;52.516;13.790;2024-01-30T10:50:32;102300.13;;;8.71;60.79
17781;BME280;8498;52.516;13.790;2024-01-30T10:55:59;102301.09;;;8.94;59.82
17781;BME280;8498;52.516;13.790;2024-01-30T11:01:22;102300.66;;;9.06;59.48
17781;BME280;8498;52.516;13.790;2024-01-30T11:06:49;102286.91;;;9.19;58.25
17781;BME280;8498;52.516;13.790;2024-01-30T11:12:12;102285.81;;;9.25;57.56
17781;BME280;8498;52.516;13.790;2024-01-30T11:23:06;102284.53;;;9.35;56.24
17781;BME280;8498;52.516;13.790;2024-01-30T11:28:33;102266.56;;;9.43;56.60
17781;BME280;8498;52.516;13.790;2024-01-30T11:33:57;102280.19;;;9.34;55.91
17781;BME280;8498;52.516;13.790;2024-01-30T11:39:22;102259.13;;;9.53;56.48
17781;BME280;8498;52.516;13.790;2024-01-30T11:44:47;102255.34;;;9.58;56.13
17781;BME280;8498;52.516;13.790;2024-01-30T11:50:11;102258.56;;;9.67;56.73
17781;BME280;8498;52.516;13.790;2024-01-30T11:55:33;102270.84;;;9.69;55.84
17781;BME280;8498;52.516;13.790;2024-01-30T12:00:58;102267.66;;;9.83;56.07
17781;BME280;8498;52.516;13.790;2024-01-30T12:06:20;102267.91;;;9.99;55.93
17781;BME280;8498;52.516;13.790;2024-01-30T12:11:46;102268.34;;;10.10;55.39
17781;BME280;8498;52.516;13.790;2024-01-30T12:17:08;102261.81;;;10.18;55.40
17781;BME280;8498;52.516;13.790;2024-01-30T12:22:31;102256.53;;;10.39;54.97
17781;BME280;8498;52.516;13.790;2024-01-30T12:27:53;102241.41;;;10.61;54.39
17781;BME280;8498;52.516;13.790;2024-01-30T12:33:17;102231.09;;;10.74;54.81
17781;BME280;8498;52.516;13.790;2024-01-30T12:38:40;102233.88;;;10.50;54.71
17781;BME280;8498;52.516;13.790;2024-01-30T12:44:03;102226.78;;;10.51;55.35
17781;BME280;8498;52.516;13.790;2024-01-30T12:49:25;102218.81;;;10.51;55.93
17781;BME280;8498;52.516;13.790;2024-01-30T12:54:51;102216.56;;;10.62;56.61
17781;BME280;8498;52.516;13.790;2024-01-30T13:00:13;102215.56;;;10.64;56.79
17781;BME280;8498;52.516;13.790;2024-01-30T13:05:36;102204.41;;;10.77;56.63
17781;BME280;8498;52.516;13.790;2024-01-30T13:10:58;102204.16;;;10.81;56.67
17781;BME280;8498;52.516;13.790;2024-01-30T13:16:20;102196.91;;;10.66;57.02
17781;BME280;8498;52.516;13.790;2024-01-30T13:21:42;102193.41;;;10.84;57.74
17781;BME280;8498;52.516;13.790;2024-01-30T13:27:05;102189.53;;;10.91;56.56
17781;BME280;8498;52.516;13.790;2024-01-30T13:32:29;102189.88;;;10.84;56.84
17781;BME280;8498;52.516;13.790;2024-01-30T13:37:51;102185.72;;;10.78;56.73
17781;BME280;8498;52.516;13.790;2024-01-30T13:43:13;102178.50;;;10.80;57.23
17781;BME280;8498;52.516;13.790;2024-01-30T13:48:35;102177.38;;;10.67;57.77
17781;BME280;8498;52.516;13.790;2024-01-30T13:53:57;102167.78;;;10.63;57.99
17781;BME280;8498;52.516;13.790;2024-01-30T13:59:19;102163.34;;;10.63;59.12
17781;BME280;8498;52.516;13.790;2024-01-30T14:04:45;102156.50;;;10.58;60.14
17781;BME280;8498;52.516;13.790;2024-01-30T14:10:09;102164.97;;;10.47;61.73
17781;BME280;8498;52.516;13.790;2024-01-30T14:15:36;102165.38;;;10.38;61.34
17781;BME280;8498;52.516;13.790;2024-01-30T14:20:58;102161.28;;;10.29;62.48
17781;BME280;8498;52.516;13.790;2024-01-30T14:26:20;102170.59;;;10.19;63.11
17781;BME280;8498;52.516;13.790;2024-01-30T14:31:43;102163.66;;;10.15;63.55
17781;BME280;8498;52.516;13.790;2024-01-30T14:37:05;102159.00;;;10.00;65.05
17781;BME280;8498;52.516;13.790;2024-01-30T14:42:27;102160.56;;;9.84;67.12
17781;BME280;8498;52.516;13.790;2024-01-30T14:47:53;102158.41;;;9.72;68.04
17781;BME280;8498;52.516;13.790;2024-01-30T14:53:18;102150.91;;;9.61;69.42
17781;BME280;8498;52.516;13.790;2024-01-30T14:58:40;102156.88;;;9.44;70.38
17781;BME280;8498;52.516;13.790;2024-01-30T15:04:02;102151.16;;;9.33;71.53
17781;BME280;8498;52.516;13.790;2024-01-30T15:09:25;102158.16;;;9.12;72.40
17781;BME280;8498;52.516;13.790;2024-01-30T15:14:51;102158.91;;;8.93;73.04
17781;BME280;8498;52.516;13.790;2024-01-30T15:20:13;102150.94;;;8.69;75.15
17781;BME280;8498;52.516;13.790;2024-01-30T15:25:35;102163.06;;;8.52;76.23
17781;BME280;8498;52.516;13.790;2024-01-30T15:30:58;102161.94;;;8.34;77.70
17781;BME280;8498;52.516;13.790;2024-01-30T15:36:20;102170.31;;;8.20;78.44
17781;BME280;8498;52.516;13.790;2024-01-30T15:41:43;102181.34;;;8.08;78.87
17781;BME280;8498;52.516;13.790;2024-01-30T15:47:05;102179.25;;;7.91;80.41
17781;BME280;8498;52.516;13.790;2024-01-30T15:52:27;102183.41;;;7.72;81.26
17781;BME280;8498;52.516;13.790;2024-01-30T15:57:50;102190.94;;;7.58;81.72
17781;BME280;8498;52.516;13.790;2024-01-30T16:03:12;102199.25;;;7.46;82.10
17781;BME280;8498;52.516;13.790;2024-01-30T16:08:34;102189.88;;;7.35;82.84
17781;BME280;8498;52.516;13.790;2024-01-30T16:13:56;102196.41;;;7.24;83.60
17781;BME280;8498;52.516;13.790;2024-01-30T16:19:18;102187.06;;;7.12;84.19
17781;BME280;8498;52.516;13.790;2024-01-30T16:24:41;102192.50;;;7.06;84.49
17781;BME280;8498;52.516;13.790;2024-01-30T16:30:04;102197.13;;;6.99;84.60
17781;BME280;8498;52.516;13.790;2024-01-30T16:35:26;102186.84;;;6.89;85.11
17781;BME280;8498;52.516;13.790;2024-01-30T16:41:07;102188.94;;;6.78;85.02
17781;BME280;8498;52.516;13.790;2024-01-30T16:46:30;102186.47;;;6.72;85.84
17781;BME280;8498;52.516;13.790;2024-01-30T16:51:52;102204.25;;;6.65;85.46
17781;BME280;8498;52.516;13.790;2024-01-30T16:57:14;102200.91;;;6.58;86.15
17781;BME280;8498;52.516;13.790;2024-01-30T17:02:36;102199.25;;;6.54;86.12
17781;BME280;8498;52.516;13.790;2024-01-30T17:07:58;102193.25;;;6.49;86.66
17781;BME280;8498;52.516;13.790;2024-01-30T17:13:20;102199.44;;;6.48;86.45
17781;BME280;8498;52.516;13.790;2024-01-30T17:18:42;102196.06;;;6.43;86.69
17781;BME280;8498;52.516;13.790;2024-01-30T17:24:04;102194.44;;;6.38;87.33
17781;BME280;8498;52.516;13.790;2024-01-30T17:29:29;102199.03;;;6.31;87.70
17781;BME280;8498;52.516;13.790;2024-01-30T17:34:51;102207.09;;;6.25;88.68
17781;BME280;8498;52.516;13.790;2024-01-30T17:40:14;102211.47;;;6.26;88.54
17781;BME280;8498;52.516;13.790;2024-01-30T17:45:36;102205.34;;;6.24;88.23
17781;BME280;8498;52.516;13.790;2024-01-30T17:51:00;102207.19;;;6.22;88.61
17781;BME280;8498;52.516;13.790;2024-01-30T17:56:22;102207.25;;;6.19;88.39
17781;BME280;8498;52.516;13.790;2024-01-30T18:01:48;102217.84;;;6.17;89.39
17781;BME280;8498;52.516;13.790;2024-01-30T18:07:10;102209.06;;;6.17;89.18
17781;BME280;8498;52.516;13.790;2024-01-30T18:12:34;102216.03;;;6.19;90.11
17781;BME280;8498;52.516;13.790;2024-01-30T18:17:56;102226.25;;;6.66;89.79
17781;BME280;8498;52.516;13.790;2024-01-30T18:23:18;102230.06;;;7.17;86.85
17781;BME280;8498;52.516;13.790;2024-01-30T18:28:42;102228.63;;;7.36;84.88
17781;BME280;8498;52.516;13.790;2024-01-30T18:34:05;102218.84;;;7.38;84.52
17781;BME280;8498;52.516;13.790;2024-01-30T18:39:27;102222.63;;;7.30;84.45
17781;BME280;8498;52.516;13.790;2024-01-30T18:44:49;102230.59;;;7.28;84.97
17781;BME280;8498;52.516;13.790;2024-01-30T18:50:11;102245.69;;;7.26;85.50
17781;BME280;8498;52.516;13.790;2024-01-30T18:55:34;102245.34;;;7.37;84.90
17781;BME280;8498;52.516;13.790;2024-01-30T19:00:56;102259.31;;;7.41;84.86
17781;BME280;8498;52.516;13.790;2024-01-30T19:06:18;102244.06;;;7.50;84.60
17781;BME280;8498;52.516;13.790;2024-01-30T19:11:40;102249.84;;;7.63;84.28
17781;BME280;8498;52.516;13.790;2024-01-30T19:17:02;102244.47;;;7.66;84.15
17781;BME280;8498;52.516;13.790;2024-01-30T19:22:25;102251.31;;;7.71;84.09
17781;BME280;8498;52.516;13.790;2024-01-30T19:27:47;102251.19;;;7.76;84.33
17781;BME280;8498;52.516;13.790;2024-01-30T19:33:09;102249.09;;;7.87;83.90
17781;BME280;8498;52.516;13.790;2024-01-30T19:38:31;102252.59;;;7.88;83.52
17781;BME280;8498;52.516;13.790;2024-01-30T19:43:53;102245.28;;;7.96;83.78
17781;BME280;8498;52.516;13.790;2024-01-30T19:49:15;102245.88;;;8.04;83.88
17781;BME280;8498;52.516;13.790;2024-01-30T19:54:38;102247.47;;;8.09;84.22
17781;BME280;8498;52.516;13.790;2024-01-30T20:00:01;102247.22;;;8.17;84.79
17781;BME280;8498;52.516;13.790;2024-01-30T20:05:25;102250.41;;;8.27;85.11
17781;BME280;8498;52.516;13.790;2024-01-30T20:10:48;102241.44;;;8.31;85.22
17781;BME280;8498;52.516;13.790;2024-01-30T20:16:10;102248.34;;;8.36;85.15
17781;BME280;8498;52.516;13.790;2024-01-30T20:21:33;102243.75;;;8.41;85.37
17781;BME280;8498;52.516;13.790;2024-01-30T20:26:56;102245.25;;;8.50;85.65
17781;BME280;8498;52.516;13.790;2024-01-30T20:32:18;102246.81;;;8.56;86.45
17781;BME280;8498;52.516;13.790;2024-01-30T20:37:41;102251.03;;;8.61;86.41
17781;BME280;8498;52.516;13.790;2024-01-30T20:43:04;102243.81;;;8.65;87.34
17781;BME280;8498;52.516;13.790;2024-01-30T20:48:26;102257.03;;;8.66;87.51
17781;BME280;8498;52.516;13.790;2024-01-30T20:53:50;102250.81;;;8.67;87.78
17781;BME280;8498;52.516;13.790;2024-01-30T20:59:12;102249.06;;;8.66;88.19
17781;BME280;8498;52.516;13.790;2024-01-30T21:04:35;102254.47;;;8.63;88.25
17781;BME280;8498;52.516;13.790;2024-01-30T21:09:57;102263.50;;;8.58;88.92
17781;BME280;8498;52.516;13.790;2024-01-30T21:15:19;102260.31;;;8.48;88.89
17781;BME280;8498;52.516;13.790;2024-01-30T21:20:41;102254.25;;;8.44;89.74
17781;BME280;8498;52.516;13.790;2024-01-30T21:26:04;102260.41;;;8.45;90.00
17781;BME280;8498;52.516;13.790;2024-01-30T21:31:28;102258.69;;;8.44;90.38
17781;BME280;8498;52.516;13.790;2024-01-30T21:36:50;102265.72;;;8.45;90.78
17781;BME280;8498;52.516;13.790;2024-01-30T21:42:13;102259.50;;;8.46;91.36
17781;BME280;8498;52.516;13.790;2024-01-30T21:47:35;102267.59;;;8.41;91.40
17781;BME280;8498;52.516;13.790;2024-01-30T21:52:57;102266.63;;;8.44;91.85
17781;BME280;8498;52.516;13.790;2024-01-30T21:58:19;102272.66;;;8.49;92.53
17781;BME280;8498;52.516;13.790;2024-01-30T22:03:41;102270.81;;;8.51;92.51
17781;BME280;8498;52.516;13.790;2024-01-30T22:09:06;102265.38;;;8.54;93.13
17781;BME280;8498;52.516;13.790;2024-01-30T22:14:29;102265.94;;;8.64;93.42
17781;BME280;8498;52.516;13.790;2024-01-30T22:19:55;102252.59;;;8.67;94.03
17781;BME280;8498;52.516;13.790;2024-01-30T22:25:17;102253.31;;;8.72;93.44
17781;BME280;8498;52.516;13.790;2024-01-30T22:30:39;102262.91;;;8.74;93.54
17781;BME280;8498;52.516;13.790;2024-01-30T22:36:01;102266.28;;;8.79;93.64
17781;BME280;8498;52.516;13.790;2024-01-30T22:41:24;102276.06;;;8.77;93.85
17781;BME280;8498;52.516;13.790;2024-01-30T22:46:47;102273.41;;;8.77;94.13
17781;BME280;8498;52.516;13.790;2024-01-30T22:52:09;102286.56;;;8.80;94.39
17781;BME280;8498;52.516;13.790;2024-01-30T22:57:32;102287.53;;;8.78;93.78
17781;BME280;8498;52.516;13.790;2024-01-30T23:02:55;102296.72;;;8.68;94.08
17781;BME280;8498;52.516;13.790;2024-01-30T23:08:18;102297.09;;;8.57;94.21
17781;BME280;8498;52.516;13.790;2024-01-30T23:13:41;102304.22;;;8.55;94.91
17781;BME280;8498;52.516;13.790;2024-01-30T23:19:03;102301.78;;;8.49;95.04
17781;BME280;8498;52.516;13.790;2024-01-30T23:24:29;102310.91;;;8.40;95.63
17781;BME280;8498;52.516;13.790;2024-01-30T23:29:51;102302.97;;;8.40;95.76
17781;BME280;8498;52.516;13.790;2024-01-30T23:35:13;102305.09;;;8.28;95.96
17781;BME280;8498;52.516;13.790;2024-01-30T23:40:35;102319.16;;;8.30;96.86
17781;BME280;8498;52.516;13.790;2024-01-30T23:45:57;102322.81;;;8.26;96.36
17781;BME280;8498;52.516;13.790;2024-01-30T23:51:19;102317.81;;;8.17;96.98
17781;BME280;8498;52.516;13.790;2024-01-30T23:56:42;102318.00;;;8.10;96.98
